American Islander — WDC5089 — position and weather

sailwx.info

Track history (hours):
 
Tides and Currents Weather Stations Pressure Air Temp Water Temp Dewpoint Dewpoint Depression Visibility Wind Speed Wind Dir Waves Ship Positions

American Islander

More information available from US FCC via Universal Licensing System and Coast Guard Vessel Documentation Center.

Last reported at 2014-Sep-14 15:34 UTC. Time now 2014-Sep-23 16:27 UTC.
Position N 33°44' W 118°16'.
Warning: this ship's position is 9 days out of date.

Length 31 m; draft 3 m.

Type: Ship. MMSI: 367035570.

Date/timePositionNaut miles runAvg speedWind from/ knotsBaromVisibWave heightAir tempDewpointWater temp
2014-Sep-14 15:34N 33°44' W 118°16'7 7.3
2014-Sep-14 14:34N 33°38' W 118°11'8 7.8
2014-Sep-14 13:33N 33°31' W 118°07'8 8.0
2014-Sep-14 12:33N 33°23' W 118°04'8 7.9
2014-Sep-14 11:33N 33°16' W 118°01'8 7.9
2014-Sep-14 10:33N 33°08' W 118°03'8 7.7
2014-Sep-14 09:33N 33°00' W 118°04'8 7.7
2014-Sep-14 08:33N 32°53' W 118°06'8 7.6
2014-Sep-14 07:34N 32°46' W 118°10'7 7.2
2014-Sep-14 06:33N 32°39' W 118°13'7 6.7
2014-Sep-14 05:33N 32°33' W 118°15'6 6.4
2014-Sep-14 04:34N 32°27' W 118°17'6 5.9
2014-Sep-14 03:33N 32°21' W 118°20'6 6.0
2014-Sep-14 02:34N 32°16' W 118°23'1 1.0
2014-Sep-14 01:33N 32°16' W 118°24'8 1.9
2014-Sep-13 21:07N 32°22' W 118°31'1 1.4
2014-Sep-13 20:33N 32°22' W 118°30'1 0.8
2014-Sep-13 19:34N 32°21' W 118°31'3 3.3
2014-Sep-13 18:33N 32°23' W 118°34'3 2.9
2014-Sep-13 17:34N 32°25' W 118°37'1 1.2
2014-Sep-13 16:33N 32°24' W 118°36'3 2.9
2014-Sep-13 15:33N 32°25' W 118°39'3 3.1
2014-Sep-13 14:33N 32°26' W 118°43'1 0.7
2014-Sep-13 13:33N 32°26' W 118°43'1 0.8
2014-Sep-13 12:33N 32°26' W 118°43'3 2.7
2014-Sep-13 11:34N 32°25' W 118°46'0 0.4
2014-Sep-13 10:33N 32°25' W 118°46'2 1.9
2014-Sep-13 09:33N 32°25' W 118°44'3 2.6
2014-Sep-13 08:34N 32°26' W 118°46'1 0.6
2014-Sep-13 07:34N 32°26' W 118°46'1 0.7
2014-Sep-13 06:18N 32°27' W 118°45'2 3.0
2014-Sep-13 05:33N 32°28' W 118°47'1 0.7
2014-Sep-13 04:34N 32°29' W 118°47'1 1.5
2014-Sep-13 03:33N 32°28' W 118°46'3 2.7
2014-Sep-13 02:32N 32°30' W 118°48'3 2.9
2014-Sep-13 01:33N 32°32' W 118°50'4 4.0
2014-Sep-13 00:34N 32°35' W 118°54'3 3.2
2014-Sep-12 23:33N 32°36' W 118°57'1 1.4
2014-Sep-12 22:33N 32°36' W 118°55'2 2.3
2014-Sep-12 21:34N 32°37' W 118°58'2 1.8
2014-Sep-12 20:31N 32°37' W 119°00'1 1.5
2014-Sep-12 19:33N 32°39' W 119°00'1 0.7
2014-Sep-12 18:33N 32°38' W 118°60'1 1.5
2014-Sep-12 17:33N 32°38' W 118°58'1 1.4
2014-Sep-12 16:33N 32°38' W 118°56'1 1.0
2014-Sep-12 15:33N 32°37' W 118°58'1 1.2
2014-Sep-12 14:32N 32°38' W 118°58'4 4.2
2014-Sep-12 13:33N 32°42' W 118°59'4 4.5
2014-Sep-12 12:33N 32°47' W 118°59'13 4.3
2014-Sep-12 09:33N 32°59' W 118°55'4 4.3
2014-Sep-12 08:33N 33°03' W 118°53'4 4.2
2014-Sep-12 07:33N 33°07' W 118°52'4 4.3
2014-Sep-12 06:33N 33°11' W 118°50'4 3.8
2014-Sep-12 05:32N 33°15' W 118°48'3 2.9
2014-Sep-12 04:33N 33°16' W 118°45'1 1.0
2014-Sep-12 03:33N 33°17' W 118°44'5 4.7
2014-Sep-12 02:33N 33°21' W 118°43'5 4.7
2014-Sep-12 01:33N 33°26' W 118°41'5 5.0
2014-Sep-12 00:33N 33°30' W 118°39'5 5.1
2014-Sep-11 23:33N 33°32' W 118°33'5 4.8
2014-Sep-11 22:33N 33°34' W 118°27'5 5.1
2014-Sep-11 21:33N 33°36' W 118°22'5 5.2
2014-Sep-11 20:33N 33°39' W 118°17'4 3.8
2014-Sep-11 19:33N 33°43' W 118°15'2 1.6
2014-Sep-11 18:33N 33°44' W 118°16'0 0.0
2014-Sep-11 17:33N 33°44' W 118°16'0 0.0
2014-Sep-11 16:33N 33°44' W 118°16'0 0.0
2014-Sep-11 15:05N 33°44' W 118°16'0 0.0
2014-Sep-11 14:33N 33°44' W 118°16'0 0.0
2014-Sep-11 13:33N 33°44' W 118°16'0 0.0
2014-Sep-11 12:33N 33°44' W 118°16'0 0.0
2014-Sep-11 11:33N 33°44' W 118°16'0 0.0
2014-Sep-11 10:33N 33°44' W 118°16'0 0.0
2014-Sep-11 09:34N 33°44' W 118°16'0 0.0
2014-Sep-11 08:34N 33°44' W 118°16'0 0.0
2014-Sep-11 07:33N 33°44' W 118°16'0 0.0
2014-Sep-11 06:33N 33°44' W 118°16'0 0.0
2014-Sep-11 05:33N 33°44' W 118°16'0 0.0
2014-Sep-11 04:33N 33°44' W 118°16'0 0.0
2014-Sep-11 03:33N 33°44' W 118°16'0 0.0
2014-Sep-11 02:33N 33°44' W 118°16'0 0.0
2014-Sep-11 01:33N 33°44' W 118°16'0 0.0
2014-Sep-11 00:33N 33°44' W 118°16'0 0.0
2014-Sep-10 23:33N 33°44' W 118°16'0 0.0
2014-Sep-10 22:32N 33°44' W 118°16'0 0.4
2014-Sep-10 21:34N 33°44' W 118°16'0 0.0
2014-Sep-10 07:27N 33°44' W 118°16'0 0.0
2014-Sep-10 06:33N 33°44' W 118°16'0 0.0
2014-Sep-10 05:33N 33°44' W 118°16'0 0.0
2014-Sep-10 04:20N 33°44' W 118°16'0 0.0
2014-Sep-10 03:33N 33°44' W 118°16'0 0.0
2014-Sep-10 02:33N 33°44' W 118°16'0 0.0
2014-Sep-10 01:33N 33°44' W 118°16'0 0.0
2014-Sep-10 00:33N 33°44' W 118°16'0 0.0
2014-Sep-09 21:10N 33°44' W 118°16'0 0.0
2014-Sep-09 19:20N 33°44' W 118°16'  
Track history (hours):
 
Tides and Currents Weather Stations Pressure Air Temp Water Temp Dewpoint Dewpoint Depression Visibility Wind Speed Wind Dir Waves Ship Positions

American Islander

More information available from US FCC via Universal Licensing System and Coast Guard Vessel Documentation Center.

Last reported at 2014-Sep-14 15:34 UTC. Time now 2014-Sep-23 16:27 UTC.
Position N 33°44' W 118°16'.
Warning: this ship's position is 9 days out of date.

Length 31 m; draft 3 m.

Type: Ship. MMSI: 367035570.

Date/timePositionNaut miles runAvg speedWind from/ knotsBaromVisibWave heightAir tempDewpointWater temp
2014-Sep-14 15:34N 33°44' W 118°16'7 7.3
2014-Sep-14 14:34N 33°38' W 118°11'8 7.8
2014-Sep-14 13:33N 33°31' W 118°07'8 8.0
2014-Sep-14 12:33N 33°23' W 118°04'8 7.9
2014-Sep-14 11:33N 33°16' W 118°01'8 7.9
2014-Sep-14 10:33N 33°08' W 118°03'8 7.7
2014-Sep-14 09:33N 33°00' W 118°04'8 7.7
2014-Sep-14 08:33N 32°53' W 118°06'8 7.6
2014-Sep-14 07:34N 32°46' W 118°10'7 7.2
2014-Sep-14 06:33N 32°39' W 118°13'7 6.7
2014-Sep-14 05:33N 32°33' W 118°15'6 6.4
2014-Sep-14 04:34N 32°27' W 118°17'6 5.9
2014-Sep-14 03:33N 32°21' W 118°20'6 6.0
2014-Sep-14 02:34N 32°16' W 118°23'1 1.0
2014-Sep-14 01:33N 32°16' W 118°24'8 1.9
2014-Sep-13 21:07N 32°22' W 118°31'1 1.4
2014-Sep-13 20:33N 32°22' W 118°30'1 0.8
2014-Sep-13 19:34N 32°21' W 118°31'3 3.3
2014-Sep-13 18:33N 32°23' W 118°34'3 2.9
2014-Sep-13 17:34N 32°25' W 118°37'1 1.2
2014-Sep-13 16:33N 32°24' W 118°36'3 2.9
2014-Sep-13 15:33N 32°25' W 118°39'3 3.1
2014-Sep-13 14:33N 32°26' W 118°43'1 0.7
2014-Sep-13 13:33N 32°26' W 118°43'1 0.8
2014-Sep-13 12:33N 32°26' W 118°43'3 2.7
2014-Sep-13 11:34N 32°25' W 118°46'0 0.4
2014-Sep-13 10:33N 32°25' W 118°46'2 1.9
2014-Sep-13 09:33N 32°25' W 118°44'3 2.6
2014-Sep-13 08:34N 32°26' W 118°46'1 0.6
2014-Sep-13 07:34N 32°26' W 118°46'1 0.7
2014-Sep-13 06:18N 32°27' W 118°45'2 3.0
2014-Sep-13 05:33N 32°28' W 118°47'1 0.7
2014-Sep-13 04:34N 32°29' W 118°47'1 1.5
2014-Sep-13 03:33N 32°28' W 118°46'3 2.7
2014-Sep-13 02:32N 32°30' W 118°48'3 2.9
2014-Sep-13 01:33N 32°32' W 118°50'4 4.0
2014-Sep-13 00:34N 32°35' W 118°54'3 3.2
2014-Sep-12 23:33N 32°36' W 118°57'1 1.4
2014-Sep-12 22:33N 32°36' W 118°55'2 2.3
2014-Sep-12 21:34N 32°37' W 118°58'2 1.8
2014-Sep-12 20:31N 32°37' W 119°00'1 1.5
2014-Sep-12 19:33N 32°39' W 119°00'1 0.7
2014-Sep-12 18:33N 32°38' W 118°60'1 1.5
2014-Sep-12 17:33N 32°38' W 118°58'1 1.4
2014-Sep-12 16:33N 32°38' W 118°56'1 1.0
2014-Sep-12 15:33N 32°37' W 118°58'1 1.2
2014-Sep-12 14:32N 32°38' W 118°58'4 4.2
2014-Sep-12 13:33N 32°42' W 118°59'4 4.5
2014-Sep-12 12:33N 32°47' W 118°59'13 4.3
2014-Sep-12 09:33N 32°59' W 118°55'4 4.3
2014-Sep-12 08:33N 33°03' W 118°53'4 4.2
2014-Sep-12 07:33N 33°07' W 118°52'4 4.3
2014-Sep-12 06:33N 33°11' W 118°50'4 3.8
2014-Sep-12 05:32N 33°15' W 118°48'3 2.9
2014-Sep-12 04:33N 33°16' W 118°45'1 1.0
2014-Sep-12 03:33N 33°17' W 118°44'5 4.7
2014-Sep-12 02:33N 33°21' W 118°43'5 4.7
2014-Sep-12 01:33N 33°26' W 118°41'5 5.0
2014-Sep-12 00:33N 33°30' W 118°39'5 5.1
2014-Sep-11 23:33N 33°32' W 118°33'5 4.8
2014-Sep-11 22:33N 33°34' W 118°27'5 5.1
2014-Sep-11 21:33N 33°36' W 118°22'5 5.2
2014-Sep-11 20:33N 33°39' W 118°17'4 3.8
2014-Sep-11 19:33N 33°43' W 118°15'2 1.6
2014-Sep-11 18:33N 33°44' W 118°16'0 0.0
2014-Sep-11 17:33N 33°44' W 118°16'0 0.0
2014-Sep-11 16:33N 33°44' W 118°16'0 0.0
2014-Sep-11 15:05N 33°44' W 118°16'0 0.0
2014-Sep-11 14:33N 33°44' W 118°16'0 0.0
2014-Sep-11 13:33N 33°44' W 118°16'0 0.0
2014-Sep-11 12:33N 33°44' W 118°16'0 0.0
2014-Sep-11 11:33N 33°44' W 118°16'0 0.0
2014-Sep-11 10:33N 33°44' W 118°16'0 0.0
2014-Sep-11 09:34N 33°44' W 118°16'0 0.0
2014-Sep-11 08:34N 33°44' W 118°16'0 0.0
2014-Sep-11 07:33N 33°44' W 118°16'0 0.0
2014-Sep-11 06:33N 33°44' W 118°16'0 0.0
2014-Sep-11 05:33N 33°44' W 118°16'0 0.0
2014-Sep-11 04:33N 33°44' W 118°16'0 0.0
2014-Sep-11 03:33N 33°44' W 118°16'0 0.0
2014-Sep-11 02:33N 33°44' W 118°16'0 0.0
2014-Sep-11 01:33N 33°44' W 118°16'0 0.0
2014-Sep-11 00:33N 33°44' W 118°16'0 0.0
2014-Sep-10 23:33N 33°44' W 118°16'0 0.0
2014-Sep-10 22:32N 33°44' W 118°16'0 0.4
2014-Sep-10 21:34N 33°44' W 118°16'0 0.0
2014-Sep-10 07:27N 33°44' W 118°16'0 0.0
2014-Sep-10 06:33N 33°44' W 118°16'0 0.0
2014-Sep-10 05:33N 33°44' W 118°16'0 0.0
2014-Sep-10 04:20N 33°44' W 118°16'0 0.0
2014-Sep-10 03:33N 33°44' W 118°16'0 0.0
2014-Sep-10 02:33N 33°44' W 118°16'0 0.0
2014-Sep-10 01:33N 33°44' W 118°16'0 0.0
2014-Sep-10 00:33N 33°44' W 118°16'0 0.0
2014-Sep-09 21:10N 33°44' W 118°16'0 0.0
2014-Sep-09 19:20N 33°44' W 118°16'  

Dump ship's entire track history